Time;durP1;ratioP1;P1;durP2;ratioP2;P2;SDS_P1;SDS_P2;PMS_P1;PMS_P2;Temp;Humidity;BMP_temperature;BMP_pressure;BME280_temperature;BME280_humidity;BME280_pressure;Samples;Min_cycle;Max_cycle;Signal;HPM_P1;HPM_P2
2021/11/07 00:03:04;;;;;;;23.10;11.93;;;;;;;5.47;80.20;143605.67;1834919;77;22301;-56
2021/11/07 00:11:03;;;;;;;18.73;10.15;;;;;;;5.60;80.25;143638.19;1834896;77;22559;-61
2021/11/07 00:13:56;;;;;;;20.62;11.65;;;;;;;5.67;80.08;143655.63;1853511;77;22136;-59
2021/11/07 00:16:51;;;;;;;17.55;9.93;;;;;;;5.73;79.96;143669.41;1834913;77;22153;-58
2021/11/07 00:19:33;;;;;;;20.77;10.30;;;;;;;5.75;79.79;143675.66;1835002;77;22124;-60
2021/11/07 00:27:59;;;;;;;16.60;9.55;;;;;;;5.81;79.32;143690.62;1853544;77;22181;-58
2021/11/07 00:30:48;;;;;;;16.80;10.00;;;;;;;5.79;79.25;143685.63;1834175;77;22196;-58
2021/11/07 00:42:29;;;;;;;17.05;9.80;;;;;;;5.81;79.47;143690.62;1834958;77;22156;-57
2021/11/07 00:48:20;;;;;;;16.65;9.45;;;;;;;5.91;79.18;143714.38;1853515;77;22128;-59
2021/11/07 00:51:22;;;;;;;14.70;9.50;;;;;;;5.91;79.14;143714.38;1853446;77;22167;-57
2021/11/07 00:54:19;;;;;;;15.90;9.98;;;;;;;5.92;79.15;143715.61;1834903;77;22219;-59
2021/11/07 00:57:22;;;;;;;16.87;10.28;;;;;;;5.90;79.13;143710.59;1837740;77;38724;-59
2021/11/07 01:00:23;;;;;;;20.30;10.40;;;;;;;5.95;79.16;143724.39;1853503;77;22160;-57
2021/11/07 01:03:13;;;;;;;17.37;10.13;;;;;;;5.97;79.17;143728.16;1853451;77;22135;-57
2021/11/07 01:05:48;;;;;;;14.68;9.25;;;;;;;5.98;79.23;143731.92;1853613;77;22156;-58
2021/11/07 01:08:43;;;;;;;14.70;9.58;;;;;;;6.03;79.16;143743.13;1834865;77;22161;-60
2021/11/07 01:11:24;;;;;;;16.85;9.50;;;;;;;6.04;79.08;143745.66;1834122;77;22136;-57
2021/11/07 01:14:09;;;;;;;17.12;9.83;;;;;;;6.03;79.12;143743.13;1834055;77;22128;-58
2021/11/07 01:16:48;;;;;;;18.98;9.40;;;;;;;6.02;79.11;143740.66;1834323;77;22151;-57
2021/11/07 01:19:23;;;;;;;13.62;9.30;;;;;;;6.01;79.17;143738.17;1834875;77;22155;-60
2021/11/07 01:22:01;;;;;;;16.60;9.18;;;;;;;5.96;79.20;143726.91;1834916;77;22605;-57
2021/11/07 01:24:58;;;;;;;14.63;9.58;;;;;;;5.91;79.41;143713.13;1834919;77;22547;-56
2021/11/07 01:27:53;;;;;;;16.25;9.08;;;;;;;5.83;79.67;143695.63;1853546;77;22159;-58
2021/11/07 01:30:40;;;;;;;19.62;10.05;;;;;;;5.79;79.97;143685.63;1853851;77;22200;-55
2021/11/07 01:33:31;;;;;;;16.70;8.93;;;;;;;5.77;80.15;143680.61;1834957;77;22157;-57
2021/11/07 01:39:24;;;;;;;15.35;8.95;;;;;;;5.69;80.58;143660.64;1834010;77;22180;-56
2021/11/07 01:42:32;;;;;;;16.27;9.78;;;;;;;5.64;80.76;143648.14;1834838;77;22164;-59
2021/11/07 01:45:08;;;;;;;18.12;10.75;;;;;;;5.55;81.00;143626.94;1834929;77;22136;-59
2021/11/07 01:50:52;;;;;;;20.70;12.05;;;;;;;5.32;81.60;143570.73;1834887;77;22601;-58
2021/11/07 01:53:49;;;;;;;17.05;10.00;;;;;;;5.20;82.07;143540.75;1834053;77;22153;-59
2021/11/07 01:56:42;;;;;;;14.43;9.60;;;;;;;5.11;82.39;143518.27;1835016;77;22230;-62
2021/11/07 01:59:24;;;;;;;16.52;10.10;;;;;;;5.06;82.72;143505.78;1834110;77;22160;-58
2021/11/07 02:02:23;;;;;;;16.25;11.00;;;;;;;5.01;83.12;143494.53;1819089;77;27920;-61
2021/11/07 02:05:19;;;;;;;14.07;9.63;;;;;;;5.02;83.23;143497.06;1834722;77;22180;-57
2021/11/07 02:07:54;;;;;;;15.78;10.30;;;;;;;4.96;83.39;143483.33;1837738;77;27995;-57
2021/11/07 02:10:31;;;;;;;20.65;11.05;;;;;;;5.00;83.51;143493.30;1834751;77;22181;-58
2021/11/07 02:13:27;;;;;;;16.97;9.85;;;;;;;4.94;83.60;143478.33;1853397;77;22159;-57
2021/11/07 02:16:08;;;;;;;18.07;9.33;;;;;;;4.87;83.95;143459.61;1834082;77;22189;-58
2021/11/07 02:18:43;;;;;;;18.45;10.13;;;;;;;4.82;84.07;143448.36;1834901;77;22136;-59
2021/11/07 02:21:38;;;;;;;15.78;9.88;;;;;;;4.76;84.29;143433.41;1835003;77;22563;-60
2021/11/07 02:24:16;;;;;;;16.30;11.08;;;;;;;4.69;84.42;143415.92;1819193;77;28427;-56
2021/11/07 02:26:59;;;;;;;16.23;10.85;;;;;;;4.69;84.57;143417.16;1853446;77;22152;-58
2021/11/07 02:29:53;;;;;;;17.00;10.43;;;;;;;4.63;84.68;143400.91;1834904;77;22136;-56
2021/11/07 02:32:28;;;;;;;17.48;10.93;;;;;;;4.57;84.79;143387.20;1834943;77;22132;-58
2021/11/07 02:35:05;;;;;;;17.62;10.72;;;;;;;4.53;85.01;143378.48;1834814;77;22601;-57
2021/11/07 02:38:05;;;;;;;16.75;10.45;;;;;;;4.50;85.15;143371.00;1834073;77;22166;-57
2021/11/07 02:40:39;;;;;;;18.42;11.75;;;;;;;4.47;85.47;143362.25;1853463;77;22553;-60
2021/11/07 02:43:16;;;;;;;18.77;12.15;;;;;;;4.45;85.54;143358.53;1819206;77;27988;-60
2021/11/07 02:45:51;;;;;;;20.82;10.90;;;;;;;4.48;85.57;143366.00;1853491;77;22124;-58
2021/11/07 02:48:57;;;;;;;17.30;11.08;;;;;;;4.45;85.63;143357.25;1834042;77;22578;-59
2021/11/07 02:51:57;;;;;;;18.82;10.68;;;;;;;4.44;85.85;143356.00;1834671;77;22162;-61
2021/11/07 02:54:57;;;;;;;17.67;11.63;;;;;;;4.42;85.92;143351.00;1834241;77;22324;-58
2021/11/07 02:57:59;;;;;;;19.45;10.85;;;;;;;4.38;85.91;143341.05;1834024;77;22598;-57
2021/11/07 03:00:53;;;;;;;19.62;12.85;;;;;;;4.33;86.04;143328.58;1837721;77;28060;-57
2021/11/07 03:03:29;;;;;;;21.93;12.50;;;;;;;4.32;86.14;143326.05;1853487;77;22621;-58
2021/11/07 03:06:04;;;;;;;19.98;11.35;;;;;;;4.26;86.22;143312.33;1819337;77;28021;-59
2021/11/07 03:09:04;;;;;;;18.50;12.05;;;;;;;4.28;86.39;143316.09;1819212;77;28449;-57
2021/11/07 03:11:42;;;;;;;19.70;11.90;;;;;;;4.29;86.44;143318.56;1853509;77;22574;-57
2021/11/07 03:14:42;;;;;;;15.95;10.75;;;;;;;4.20;86.62;143296.09;1834926;77;22559;-56
2021/11/07 03:17:27;;;;;;;21.62;11.85;;;;;;;4.08;86.81;143267.44;1853455;77;22207;-56
2021/11/07 03:20:03;;;;;;;17.60;10.95;;;;;;;4.01;87.11;143251.20;1834932;77;22128;-56
2021/11/07 03:22:59;;;;;;;20.02;12.10;;;;;;;3.95;87.32;143236.25;1834691;77;22155;-57
2021/11/07 03:28:41;;;;;;;27.32;12.95;;;;;;;3.83;87.79;143207.55;1853499;77;22534;-58
2021/11/07 03:31:47;;;;;;;21.00;13.18;;;;;;;3.80;88.00;143200.06;1834119;77;22586;-59
2021/11/07 03:34:30;;;;;;;21.05;11.93;;;;;;;3.76;88.15;143188.84;1834965;77;22161;-57
2021/11/07 03:37:21;;;;;;;23.42;13.38;;;;;;;3.69;88.40;143173.89;1853388;77;22136;-60
2021/11/07 03:39:59;;;;;;;24.35;12.07;;;;;;;3.65;88.73;143163.91;1834949;77;22140;-60
2021/11/07 03:42:54;;;;;;;16.67;10.90;;;;;;;3.63;88.92;143158.91;1853471;77;22558;-58
2021/11/07 03:45:57;;;;;;;20.05;11.93;;;;;;;3.62;89.12;143156.44;1834051;77;22643;-58
2021/11/07 03:48:52;;;;;;;21.68;12.68;;;;;;;3.59;89.14;143147.72;1834700;77;22167;-58
2021/11/07 03:51:54;;;;;;;23.12;11.05;;;;;;;3.54;89.33;143136.48;1853425;77;22207;-57
2021/11/07 03:54:32;;;;;;;20.25;11.55;;;;;;;3.50;89.58;143126.50;1834873;77;22152;-59
2021/11/07 03:57:35;;;;;;;21.82;11.80;;;;;;;3.47;89.84;143119.03;1853724;77;22250;-59
2021/11/07 04:00:14;;;;;;;18.73;10.88;;;;;;;3.47;90.02;143120.27;1853537;77;22136;-57
2021/11/07 04:02:51;;;;;;;19.45;11.38;;;;;;;3.51;90.06;143129.02;1853468;77;22175;-56
2021/11/07 04:05:27;;;;;;;20.70;11.78;;;;;;;3.55;90.04;143138.97;1837722;77;28054;-58
2021/11/07 04:08:21;;;;;;;17.67;11.78;;;;;;;3.64;89.96;143161.42;1834838;77;22611;-59
2021/11/07 04:10:57;;;;;;;19.65;11.38;;;;;;;3.66;89.90;143165.14;1834929;77;22575;-55
2021/11/07 04:13:37;;;;;;;23.20;11.90;;;;;;;3.68;89.91;143171.37;1834930;77;22124;-58
2021/11/07 04:16:37;;;;;;;17.98;11.78;;;;;;;3.73;89.86;143182.61;1847965;77;22627;-59
2021/11/07 04:19:14;;;;;;;17.92;12.23;;;;;;;3.75;89.81;143186.36;1834680;77;22633;-59
2021/11/07 04:22:10;;;;;;;18.60;11.45;;;;;;;3.79;89.73;143196.31;1833988;77;22246;-58
2021/11/07 04:25:06;;;;;;;23.60;13.15;;;;;;;3.80;89.67;143198.83;1820594;77;22168;-59
2021/11/07 04:27:42;;;;;;;20.72;11.90;;;;;;;3.83;89.66;143206.31;1853461;77;22571;-59
2021/11/07 04:30:17;;;;;;;21.60;12.30;;;;;;;3.87;89.58;143216.31;1835075;77;20207;-57
2021/11/07 04:33:15;;;;;;;19.77;11.85;;;;;;;3.90;89.51;143225.02;1834664;77;22191;-61
2021/11/07 04:35:56;;;;;;;18.62;12.20;;;;;;;3.93;89.34;143231.25;1853489;77;22187;-59
2021/11/07 04:38:50;;;;;;;19.07;11.75;;;;;;;3.90;89.24;143223.78;1853521;77;22183;-56
2021/11/07 04:41:45;;;;;;;21.35;12.35;;;;;;;3.80;89.24;143198.83;1825065;77;22175;-58
2021/11/07 04:44:20;;;;;;;18.80;11.88;;;;;;;3.73;89.42;143181.38;1817155;77;38276;-58
2021/11/07 04:46:56;;;;;;;21.50;11.68;;;;;;;3.75;89.58;143186.36;1817149;77;22124;-59
2021/11/07 04:49:55;;;;;;;18.40;11.90;;;;;;;3.72;89.62;143178.89;1802233;77;22615;-56
2021/11/07 04:52:55;;;;;;;21.37;11.75;;;;;;;3.65;89.67;143162.66;1818317;77;22610;-58
2021/11/07 04:55:33;;;;;;;23.67;12.65;;;;;;;3.57;89.72;143143.95;1817528;77;22562;-56
2021/11/07 04:58:10;;;;;;;23.73;13.83;;;;;;;3.51;89.87;143127.73;1818232;77;22575;-59
2021/11/07 05:00:45;;;;;;;20.65;11.90;;;;;;;3.44;90.09;143112.78;1831997;77;22171;-61
2021/11/07 05:03:41;;;;;;;20.43;13.40;;;;;;;3.43;90.22;143109.03;1804489;77;38926;-56
2021/11/07 05:06:36;;;;;;;23.85;13.32;;;;;;;3.49;90.25;143124.02;1817050;77;22570;-56
2021/11/07 05:09:50;;;;;;;20.97;12.68;;;;;;;3.47;90.27;143120.27;1827811;77;22227;-58
2021/11/07 05:12:44;;;;;;;23.95;13.40;;;;;;;3.68;90.38;143171.37;1853545;77;22214;-58
2021/11/07 05:15:38;;;;;;;21.42;11.83;;;;;;;3.92;89.72;143228.78;1834972;77;22140;-59
2021/11/07 05:18:14;;;;;;;21.17;13.35;;;;;;;3.88;89.28;143220.02;1837690;77;28023;-58
2021/11/07 05:20:50;;;;;;;20.85;11.00;;;;;;;3.91;89.06;143227.50;1853507;77;22155;-58
2021/11/07 05:23:50;;;;;;;15.08;9.98;;;;;;;4.04;92.26;143258.67;1853644;77;22195;-57
2021/11/07 05:26:25;;;;;;;17.55;10.35;;;;;;;5.06;93.50;143505.78;1815499;77;22192;-59
2021/11/07 05:29:19;;;;;;;19.42;11.53;;;;;;;6.24;90.59;143795.64;1817160;77;22120;-57
2021/11/07 05:32:01;;;;;;;17.65;11.40;;;;;;;7.53;85.35;144110.77;1815797;77;22184;-57
2021/11/07 05:34:40;;;;;;;16.87;10.43;;;;;;;8.10;80.10;144249.66;1816301;77;22119;-57
2021/11/07 05:37:33;;;;;;;16.27;9.78;;;;;;;8.65;76.24;144383.64;1802284;77;28130;-62
2021/11/07 05:40:27;;;;;;;18.70;10.20;;;;;;;9.57;74.66;144609.17;1816218;77;22180;-60
2021/11/07 05:43:02;;;;;;;24.15;13.22;;;;;;;10.51;71.37;144839.91;1819617;77;22176;-58
2021/11/07 05:45:58;;;;;;;25.25;13.93;;;;;;;11.53;67.33;145088.34;1804975;77;28610;-61
2021/11/07 05:48:53;;;;;;;19.45;11.48;;;;;;;12.63;63.56;145359.61;1818610;77;22221;-58
2021/11/07 05:51:29;;;;;;;18.17;11.45;;;;;;;13.48;59.85;145568.25;1817959;77;22172;-59
2021/11/07 05:54:05;;;;;;;16.85;10.45;;;;;;;13.97;56.01;145688.98;1828590;77;22148;-59
2021/11/07 05:56:42;;;;;;;15.15;10.43;;;;;;;14.10;53.95;145721.67;1822555;77;22591;-58
2021/11/07 05:59:17;;;;;;;18.80;12.47;;;;;;;14.33;52.41;145777.03;1805190;77;28508;-59
2021/11/07 06:01:52;;;;;;;20.17;11.08;;;;;;;14.79;51.41;145889.06;1816092;77;22200;-58
2021/11/07 06:04:48;;;;;;;15.75;10.68;;;;;;;15.47;49.65;146057.72;1818576;77;22259;-59
2021/11/07 06:07:23;;;;;;;15.65;10.78;;;;;;;16.02;47.49;146193.75;1824423;77;22192;-60
2021/11/07 06:10:18;;;;;;;19.05;11.43;;;;;;;16.56;44.98;146324.77;1813782;77;22148;-60
2021/11/07 06:12:53;;;;;;;19.00;11.50;;;;;;;16.64;45.04;146346.22;1816110;77;22196;-60
2021/11/07 06:15:47;;;;;;;17.25;10.68;;;;;;;17.09;43.43;146455.89;1818113;77;22262;-60
2021/11/07 06:18:22;;;;;;;14.18;10.53;;;;;;;17.31;42.92;146510.12;1814055;77;22280;-60
2021/11/07 06:21:16;;;;;;;14.78;10.50;;;;;;;17.52;41.80;146563.06;1815820;77;22180;-60
2021/11/07 06:23:51;;;;;;;14.85;10.78;;;;;;;17.87;41.24;146647.63;1802744;78;22184;-59
2021/11/07 06:26:32;;;;;;;14.80;10.72;;;;;;;18.19;40.24;146727.06;1825723;77;22244;-58
2021/11/07 06:29:08;;;;;;;13.50;9.68;;;;;;;18.43;39.89;146787.63;1818564;77;22176;-59
2021/11/07 06:32:03;;;;;;;15.13;10.85;;;;;;;18.99;38.66;146925.25;1820183;77;22131;-59
2021/11/07 06:34:38;;;;;;;19.00;11.50;;;;;;;19.52;37.20;147056.56;1804336;77;28693;-61
2021/11/07 06:37:32;;;;;;;13.20;9.88;;;;;;;20.07;36.16;147191.72;1816513;77;22159;-60
2021/11/07 06:40:11;;;;;;;15.08;9.73;;;;;;;20.49;35.44;147294.09;1818295;77;22172;-60
2021/11/07 06:42:46;;;;;;;13.35;9.80;;;;;;;20.85;34.43;147383.88;1830168;77;22242;-59
2021/11/07 06:45:41;;;;;;;14.00;9.68;;;;;;;20.96;34.03;147410.41;1830869;77;22614;-60
2021/11/07 06:48:16;;;;;;;14.38;10.43;;;;;;;20.93;34.29;147404.08;1801975;77;28590;-59
2021/11/07 06:50:53;;;;;;;13.30;8.93;;;;;;;21.13;33.56;147452.14;1816512;77;22199;-60
2021/11/07 06:53:29;;;;;;;12.90;10.00;;;;;;;21.39;33.35;147517.91;1802569;77;38858;-59
2021/11/07 06:56:23;;;;;;;13.88;9.75;;;;;;;21.98;32.31;147662.09;1820772;77;22267;-61
2021/11/07 06:58:58;;;;;;;12.98;9.60;;;;;;;21.98;31.67;147662.09;1818426;77;22279;-61
2021/11/07 07:01:58;;;;;;;12.25;8.55;;;;;;;22.03;31.80;147674.73;1825973;77;22728;-60
2021/11/07 07:04:33;;;;;;;11.85;7.70;;;;;;;21.98;32.48;147663.39;1853224;77;22653;-59
2021/11/07 07:07:29;;;;;;;13.98;8.30;;;;;;;22.15;33.61;147705.11;1819333;77;22199;-59
2021/11/07 07:10:11;;;;;;;14.85;8.23;;;;;;;22.69;32.36;147838.02;1834379;77;22236;-59
2021/11/07 07:15:24;;;;;;;10.98;6.90;;;;;;;23.25;31.80;147976.03;1853070;77;22187;-59
2021/11/07 07:31:55;;;;;;;11.65;8.38;;;;;;;24.43;29.29;148268.69;1826353;77;22790;-59
2021/11/07 07:34:27;;;;;;;11.95;7.35;;;;;;;24.76;28.28;148351.09;1814659;77;22645;-61
2021/11/07 07:39:05;;;;;;;9.38;7.08;;;;;;;25.06;28.04;148425.89;1836189;77;27843;-59
2021/11/07 07:41:41;;;;;;;12.45;7.67;;;;;;;25.02;28.08;148415.72;1801124;77;22182;-59
2021/11/07 07:44:35;;;;;;;11.53;8.40;;;;;;;24.85;28.00;148373.88;1821543;77;22271;-60
2021/11/07 07:47:30;;;;;;;10.72;7.45;;;;;;;24.69;28.17;148333.34;1834135;77;22161;-60
2021/11/07 07:50:08;;;;;;;9.93;7.12;;;;;;;24.66;28.50;148325.75;1842928;78;22140;-59
2021/11/07 07:53:06;;;;;;;10.20;7.53;;;;;;;24.59;28.17;148308.00;1853086;77;22235;-59
2021/11/07 07:55:42;;;;;;;11.88;7.92;;;;;;;24.23;28.47;148219.27;1853127;77;22251;-59
2021/11/07 07:58:38;;;;;;;10.65;7.53;;;;;;;24.22;28.97;148216.70;1834371;77;22110;-60
2021/11/07 08:01:14;;;;;;;10.15;7.20;;;;;;;24.12;28.91;148192.67;1853171;77;22155;-59
2021/11/07 08:04:08;;;;;;;13.25;7.92;;;;;;;23.81;29.23;148115.37;1853136;77;22238;-59
2021/11/07 08:07:02;;;;;;;10.13;7.55;;;;;;;23.42;29.19;148019.09;1852953;77;22266;-59
2021/11/07 08:09:43;;;;;;;9.93;7.08;;;;;;;22.95;30.62;147902.59;1824769;77;22318;-60
2021/11/07 08:12:19;;;;;;;11.22;7.78;;;;;;;22.38;31.26;147762.09;1834693;77;22073;-60
2021/11/07 08:15:13;;;;;;;12.13;8.45;;;;;;;21.77;32.22;147611.50;1853175;77;22743;-60
2021/11/07 08:17:48;;;;;;;12.35;9.15;;;;;;;21.18;32.76;147464.78;1837378;77;38451;-60
2021/11/07 08:20:44;;;;;;;11.53;7.58;;;;;;;21.01;33.38;147423.03;1834653;77;22187;-60
2021/11/07 08:23:22;;;;;;;11.97;8.60;;;;;;;20.60;34.35;147321.94;1834474;77;22187;-59
2021/11/07 08:25:56;;;;;;;13.70;8.63;;;;;;;20.41;33.96;147273.89;1834720;77;22160;-57
2021/11/07 08:28:38;;;;;;;13.45;9.10;;;;;;;20.06;34.93;147189.22;1837891;77;22326;-58
2021/11/07 08:31:24;;;;;;;14.35;9.83;;;;;;;19.78;34.99;147119.75;1853246;77;22162;-59
2021/11/07 08:34:01;;;;;;;16.17;10.20;;;;;;;19.02;36.03;146931.56;1834526;77;22630;-58
2021/11/07 08:39:56;;;;;;;13.88;9.40;;;;;;;18.11;37.78;146708.14;1834547;77;22149;-58
2021/11/07 08:42:49;;;;;;;14.65;9.93;;;;;;;17.89;38.21;146652.67;1833698;77;22205;-57
2021/11/07 09:00:22;;;;;;;16.48;11.38;;;;;;;14.59;45.35;145839.97;1834949;77;22164;-57
2021/11/07 09:03:29;;;;;;;17.82;11.45;;;;;;;14.32;46.23;145775.78;1832702;77;22670;-58
2021/11/07 09:08:40;;;;;;;16.37;10.78;;;;;;;13.75;48.01;145633.66;1834954;77;22136;-57
2021/11/07 09:11:37;;;;;;;16.07;10.95;;;;;;;13.36;49.17;145539.37;1853419;77;22136;-58
2021/11/07 09:14:36;;;;;;;17.57;11.40;;;;;;;13.12;49.99;145480.22;1835337;77;22220;-58
2021/11/07 09:17:33;;;;;;;19.07;10.82;;;;;;;12.90;50.70;145424.92;1834017;77;22153;-58
2021/11/07 09:20:15;;;;;;;17.60;12.07;;;;;;;12.72;51.15;145382.23;1853498;77;22148;-59
2021/11/07 09:23:11;;;;;;;19.73;11.28;;;;;;;12.57;51.94;145344.56;1834964;77;22129;-59
2021/11/07 09:26:18;;;;;;;18.65;11.97;;;;;;;12.46;52.29;145316.89;1819332;77;28432;-58
2021/11/07 09:28:51;;;;;;;15.25;9.95;;;;;;;12.45;52.93;145314.39;1853512;77;22143;-58
2021/11/07 09:36:54;;;;;;;19.42;10.40;;;;;;;12.25;53.55;145266.66;1853437;77;22156;-58
2021/11/07 09:39:35;;;;;;;17.60;10.03;;;;;;;12.20;53.89;145252.84;1853628;77;22139;-57
2021/11/07 09:47:45;;;;;;;18.45;10.98;;;;;;;11.82;55.14;145161.12;1835110;77;22168;-59
2021/11/07 09:50:16;;;;;;;17.20;10.78;;;;;;;11.72;55.63;145136.02;1835103;77;22161;-58
2021/11/07 09:52:55;;;;;;;18.52;11.93;;;;;;;11.66;55.94;145120.97;1834733;77;22551;-58
2021/11/07 09:55:55;;;;;;;17.87;10.40;;;;;;;11.68;56.11;145127.25;1853637;77;22637;-57
2021/11/07 09:58:52;;;;;;;17.05;10.60;;;;;;;11.73;56.21;145138.55;1834887;77;22207;-57
2021/11/07 10:01:27;;;;;;;18.70;10.98;;;;;;;11.75;55.89;145143.53;1834951;77;22133;-58
2021/11/07 10:04:22;;;;;;;18.67;10.68;;;;;;;11.72;56.02;145136.02;1834805;77;22136;-58
2021/11/07 10:07:28;;;;;;;17.42;10.90;;;;;;;11.64;56.06;145115.94;1853505;77;22143;-58
2021/11/07 10:10:24;;;;;;;19.35;10.90;;;;;;;11.62;56.24;145112.16;1835011;77;22152;-58
2021/11/07 10:13:09;;;;;;;15.55;9.90;;;;;;;11.64;56.39;145115.94;1834927;77;22560;-59
2021/11/07 10:16:13;;;;;;;14.43;8.95;;;;;;;11.65;56.49;145119.72;1834893;77;22581;-57
2021/11/07 10:19:38;;;;;;;15.10;10.05;;;;;;;11.64;56.14;145115.94;1834872;77;22164;-58
2021/11/07 10:22:21;;;;;;;13.78;8.98;;;;;;;11.59;56.16;145103.38;1853410;77;22570;-59
2021/11/07 10:24:58;;;;;;;17.98;9.65;;;;;;;11.56;56.14;145095.86;1834822;77;20210;-57
2021/11/07 10:27:39;;;;;;;14.90;8.83;;;;;;;11.54;56.06;145090.83;1834737;77;22124;-57
2021/11/07 10:30:21;;;;;;;14.18;9.30;;;;;;;11.59;56.30;145103.38;1834841;77;22562;-57
2021/11/07 10:33:01;;;;;;;15.48;9.55;;;;;;;11.69;56.06;145129.73;1834928;77;22251;-57
2021/11/07 10:42:08;;;;;;;12.88;7.70;;;;;;;12.07;54.82;145221.45;1853404;77;22179;-58
2021/11/07 10:53:18;;;;;;;11.10;7.15;;;;;;;11.79;54.40;145153.59;1853528;77;22152;-57
2021/11/07 10:56:19;;;;;;;11.75;7.33;;;;;;;11.89;54.37;145177.50;1834121;77;22594;-58
2021/11/07 10:59:20;;;;;;;14.53;9.43;;;;;;;12.07;54.03;145221.45;1853419;77;22240;-58
2021/11/07 11:02:39;;;;;;;16.00;8.50;;;;;;;12.19;53.73;145250.31;1853506;77;22158;-59
2021/11/07 11:05:51;;;;;;;12.33;8.25;;;;;;;12.23;53.58;145261.63;1834118;77;22188;-58
2021/11/07 11:08:32;;;;;;;15.30;7.80;;;;;;;12.25;53.29;145266.66;1834952;77;22152;-60
2021/11/07 11:11:42;;;;;;;12.80;8.43;;;;;;;12.27;52.96;145271.69;1834856;77;22171;-58
2021/11/07 11:14:21;;;;;;;15.08;8.00;;;;;;;12.37;53.12;145296.80;1853483;77;22124;-59
2021/11/07 11:17:33;;;;;;;14.98;8.73;;;;;;;12.51;52.79;145330.69;1853498;77;22199;-57
2021/11/07 11:20:27;;;;;;;13.48;7.95;;;;;;;12.54;52.53;145338.27;1853514;77;22155;-58
2021/11/07 11:23:49;;;;;;;12.95;8.15;;;;;;;12.35;52.82;145291.77;1834945;77;22136;-57
2021/11/07 11:43:34;;;;;;;14.65;9.05;;;;;;;11.40;56.08;145058.20;1835020;77;22562;-57
2021/11/07 11:46:42;;;;;;;16.10;9.40;;;;;;;11.36;56.04;145046.91;1834945;77;22583;-59
2021/11/07 11:49:56;;;;;;;15.23;8.65;;;;;;;11.32;56.20;145038.09;1853464;77;22164;-57
2021/11/07 11:52:53;;;;;;;14.28;9.13;;;;;;;11.33;56.32;145040.63;1835014;77;22207;-57
2021/11/07 11:55:41;;;;;;;14.58;9.48;;;;;;;11.34;56.43;145041.88;1853413;77;22294;-57
2021/11/07 12:01:09;;;;;;;14.80;9.30;;;;;;;11.35;56.60;145045.66;1853506;77;22135;-58
2021/11/07 12:06:50;;;;;;;15.03;8.53;;;;;;;11.46;56.38;145072.00;1834980;77;22164;-58
2021/11/07 12:15:24;;;;;;;17.35;9.60;;;;;;;11.46;56.54;145072.00;1834940;77;22144;-57
2021/11/07 12:18:04;;;;;;;14.05;7.62;;;;;;;11.42;56.61;145063.23;1853430;77;22151;-57
2021/11/07 12:20:42;;;;;;;16.95;8.65;;;;;;;11.37;56.63;145049.39;1834931;77;22129;-57
2021/11/07 12:23:28;;;;;;;15.60;8.58;;;;;;;11.32;56.76;145038.09;1834925;77;22164;-57
2021/11/07 12:26:30;;;;;;;15.60;8.20;;;;;;;11.26;57.13;145023.06;1853488;77;22136;-58
2021/11/07 12:29:42;;;;;;;12.85;7.53;;;;;;;11.17;56.90;145000.44;1853503;77;22175;-57
2021/11/07 12:32:36;;;;;;;9.68;6.65;;;;;;;11.11;56.77;144986.66;1853539;77;22152;-57
2021/11/07 12:35:37;;;;;;;9.20;6.20;;;;;;;11.02;56.54;144965.34;1853525;77;22143;-57
2021/11/07 12:41:28;;;;;;;13.25;7.58;;;;;;;10.88;56.34;144930.19;1834902;77;22197;-58
2021/11/07 12:44:27;;;;;;;9.73;6.17;;;;;;;10.81;56.48;144912.63;1834750;77;22168;-58
2021/11/07 12:47:32;;;;;;;12.93;6.00;;;;;;;10.72;56.61;144890.08;1830473;77;22246;-58
2021/11/07 12:50:26;;;;;;;12.65;6.87;;;;;;;10.69;56.60;144882.56;1818111;77;22191;-58
2021/11/07 12:53:02;;;;;;;10.90;6.35;;;;;;;10.65;56.79;144873.75;1832287;77;20222;-57
2021/11/07 12:55:38;;;;;;;12.37;6.20;;;;;;;10.60;57.00;144862.45;1828273;77;22156;-57
2021/11/07 12:58:14;;;;;;;13.88;8.78;;;;;;;10.58;57.12;144856.19;1802028;77;28134;-58
2021/11/07 13:00:50;;;;;;;13.93;7.80;;;;;;;10.62;57.25;144867.47;1820468;77;22551;-58
2021/11/07 13:03:24;;;;;;;16.12;8.83;;;;;;;10.58;57.37;144857.47;1821505;77;22223;-57
2021/11/07 13:06:26;;;;;;;16.42;8.60;;;;;;;10.55;57.77;144849.91;1834208;77;22180;-58
2021/11/07 13:09:03;;;;;;;13.20;8.25;;;;;;;10.53;58.14;144843.64;1853507;77;22155;-57
2021/11/07 13:11:42;;;;;;;16.32;8.60;;;;;;;10.51;58.53;144839.91;1817462;77;28106;-57
2021/11/07 13:35:11;;;;;;;20.23;12.60;;;;;;;10.00;62.76;144714.47;1834977;77;22124;-57
2021/11/07 13:38:14;;;;;;;20.50;12.70;;;;;;;9.90;63.17;144690.64;1843405;77;22578;-60
2021/11/07 13:41:23;;;;;;;19.25;11.75;;;;;;;9.85;63.43;144676.86;1850988;77;22219;-61
2021/11/07 13:44:16;;;;;;;17.30;11.15;;;;;;;9.76;63.69;144655.53;1834715;77;22219;-57
2021/11/07 13:47:08;;;;;;;20.75;11.93;;;;;;;9.69;63.83;144639.27;1853497;77;22212;-58
2021/11/07 13:50:13;;;;;;;24.20;12.28;;;;;;;9.63;64.42;144622.95;1853489;77;22527;-59
2021/11/07 13:53:07;;;;;;;21.80;13.05;;;;;;;9.53;64.84;144599.13;1830002;77;22148;-57
2021/11/07 13:56:06;;;;;;;20.35;12.10;;;;;;;9.46;65.03;144581.58;1818180;77;22218;-58
2021/11/07 13:58:47;;;;;;;20.57;12.55;;;;;;;9.46;65.13;144581.58;1815624;77;22342;-58
2021/11/07 14:01:42;;;;;;;23.80;13.32;;;;;;;9.42;65.74;144571.59;1828432;77;22266;-58
2021/11/07 14:04:17;;;;;;;18.62;11.65;;;;;;;9.35;66.23;144556.52;1820411;77;22144;-56
2021/11/07 14:06:52;;;;;;;27.20;14.75;;;;;;;9.30;66.54;144543.98;1816631;77;23374;-57
2021/11/07 14:09:28;;;;;;;26.00;14.33;;;;;;;9.22;66.88;144523.95;1827325;77;22204;-58
2021/11/07 14:12:41;;;;;;;25.12;13.88;;;;;;;9.19;67.16;144516.45;1817135;77;22227;-57
2021/11/07 14:15:32;;;;;;;25.65;14.75;;;;;;;9.16;68.03;144508.94;1820864;77;22147;-57
2021/11/07 14:21:05;;;;;;;21.93;15.50;;;;;;;9.02;68.83;144475.09;1803826;77;28637;-58
2021/11/07 14:23:48;;;;;;;24.10;14.98;;;;;;;9.02;69.37;144473.84;1819687;77;22148;-58
2021/11/07 14:27:00;;;;;;;23.92;14.68;;;;;;;8.99;69.78;144466.34;1836141;77;22264;-57
2021/11/07 14:30:03;;;;;;;24.65;15.68;;;;;;;8.94;70.46;144453.81;1815374;77;22198;-60
2021/11/07 14:32:40;;;;;;;27.75;16.67;;;;;;;8.90;70.54;144446.31;1820419;77;22207;-57
2021/11/07 14:35:19;;;;;;;27.52;16.60;;;;;;;8.90;70.84;144446.31;1816199;77;22197;-59
2021/11/07 14:41:12;;;;;;;27.60;16.97;;;;;;;8.86;71.25;144435.03;1818774;77;22698;-57
2021/11/07 14:46:43;;;;;;;30.43;18.82;;;;;;;8.85;71.72;144433.78;1834935;77;22160;-58
2021/11/07 14:49:53;;;;;;;28.57;18.00;;;;;;;8.86;72.25;144435.03;1853551;77;22586;-58
2021/11/07 14:55:24;;;;;;;30.17;18.10;;;;;;;8.73;73.69;144403.72;1834993;77;20211;-57
2021/11/07 15:01:29;;;;;;;34.38;20.10;;;;;;;8.60;75.05;144371.13;1843225;77;22205;-59
2021/11/07 15:21:07;;;;;;;29.75;19.10;;;;;;;8.18;80.60;144268.44;1853442;77;22582;-57
2021/11/07 15:23:41;;;;;;;32.15;20.62;;;;;;;8.13;80.74;144257.16;1834921;77;22168;-59
2021/11/07 15:26:33;;;;;;;32.15;17.60;;;;;;;8.02;81.17;144230.87;1834903;77;22153;-58
2021/11/07 15:29:21;;;;;;;31.73;18.85;;;;;;;7.94;81.62;144209.63;1853489;77;22167;-57
2021/11/07 15:32:09;;;;;;;34.67;18.82;;;;;;;7.88;82.28;144194.58;1853523;77;22581;-58
2021/11/07 15:34:48;;;;;;;32.05;17.37;;;;;;;7.87;82.36;144192.09;1834947;77;22546;-58
2021/11/07 15:37:34;;;;;;;28.73;16.82;;;;;;;7.86;82.57;144189.56;1800759;79;22192;-58
2021/11/07 15:40:11;;;;;;;30.25;19.50;;;;;;;7.82;82.81;144180.83;1837072;77;28003;-57
2021/11/07 15:42:52;;;;;;;24.40;16.73;;;;;;;7.84;83.05;144185.84;1834148;77;22618;-57
2021/11/07 15:45:29;;;;;;;27.52;17.82;;;;;;;7.77;83.59;144168.31;1834988;77;22609;-56
2021/11/07 15:48:04;;;;;;;32.35;19.02;;;;;;;7.76;83.99;144167.06;1834980;77;22156;-57
2021/11/07 15:50:48;;;;;;;28.90;18.67;;;;;;;7.74;84.32;144160.81;1819393;77;28018;-58
2021/11/07 15:56:41;;;;;;;32.75;20.35;;;;;;;7.67;85.13;144143.28;1843403;77;22163;-57